Time;durP1;ratioP1;P1;durP2;ratioP2;P2;SDS_P1;SDS_P2;PMS_P1;PMS_P2;Temp;Humidity;BMP_temperature;BMP_pressure;BME280_temperature;BME280_humidity;BME280_pressure;Samples;Min_cycle;Max_cycle;Signal;HPM_P1;HPM_P2
2021/07/21 00:00:16;;;;;;;8.30;4.32;;;;;;;20.58;63.98;99077.97;5102800;28;20047;-61
2021/07/21 00:02:42;;;;;;;8.32;4.68;;;;;;;20.59;63.67;99077.03;5102982;28;20337;-60
2021/07/21 00:05:11;;;;;;;9.30;4.85;;;;;;;20.56;63.61;99080.72;5099838;28;20027;-60
2021/07/21 00:07:37;;;;;;;6.97;3.83;;;;;;;20.53;63.88;99071.25;5122319;28;20048;-59
2021/07/21 00:10:05;;;;;;;9.00;4.68;;;;;;;20.55;63.54;99075.56;5108412;28;20047;-60
2021/07/21 00:15:17;;;;;;;7.85;4.32;;;;;;;20.56;62.81;99069.34;5121826;28;20051;-61
2021/07/21 00:17:45;;;;;;;8.85;4.07;;;;;;;20.47;63.03;99049.81;5114474;28;20277;-60
2021/07/21 00:20:12;;;;;;;5.65;3.92;;;;;;;20.53;63.33;99068.63;5106713;28;20052;-60
2021/07/21 00:22:39;;;;;;;7.93;3.60;;;;;;;20.58;62.98;99060.41;5113292;28;20047;-59
2021/07/21 00:25:11;;;;;;;7.53;3.75;;;;;;;20.48;63.05;99052.34;5115804;28;20047;-60
2021/07/21 00:27:40;;;;;;;6.10;4.35;;;;;;;20.46;63.80;99051.59;5105595;28;20047;-60
2021/07/21 00:30:07;;;;;;;6.47;4.13;;;;;;;20.48;63.40;99065.50;5122488;28;20335;-60
2021/07/21 00:32:34;;;;;;;5.90;3.70;;;;;;;20.50;63.38;99052.22;5122076;28;20042;-59
2021/07/21 00:35:00;;;;;;;6.80;3.70;;;;;;;20.47;63.32;99053.28;5122259;28;20258;-59
2021/07/21 00:37:26;;;;;;;5.90;3.90;;;;;;;20.47;63.00;99047.19;5122130;28;20332;-59
2021/07/21 00:39:52;;;;;;;5.57;3.70;;;;;;;20.43;62.88;99043.94;5117559;28;20092;-59
2021/07/21 00:42:18;;;;;;;6.10;3.72;;;;;;;20.46;63.16;99043.72;5110225;28;20020;-59
2021/07/21 00:44:44;;;;;;;9.70;4.05;;;;;;;20.44;63.34;99043.00;5102371;28;20225;-59
2021/07/21 00:47:10;;;;;;;6.25;3.80;;;;;;;20.42;63.87;99044.06;5102301;28;20269;-59
2021/07/21 00:49:36;;;;;;;6.55;3.78;;;;;;;20.41;63.67;99042.34;5102424;28;20012;-59
2021/07/21 00:52:04;;;;;;;6.68;4.03;;;;;;;20.39;63.66;99031.97;5107595;28;20078;-59
2021/07/21 00:54:33;;;;;;;6.82;3.90;;;;;;;20.33;63.70;99024.53;5105309;28;20067;-59
2021/07/21 00:57:01;;;;;;;16.08;4.22;;;;;;;20.36;64.65;99034.81;5122018;28;20336;-59
2021/07/21 00:59:27;;;;;;;6.63;3.83;;;;;;;20.39;63.93;99034.59;5121807;28;20051;-59
2021/07/21 01:01:53;;;;;;;8.88;3.83;;;;;;;20.36;64.07;99026.94;5112709;28;20042;-59
2021/07/21 01:04:19;;;;;;;7.45;3.90;;;;;;;20.30;63.79;99020.31;5118987;28;20024;-59
2021/07/21 01:06:45;;;;;;;6.38;3.60;;;;;;;20.29;63.10;99028.31;5113721;28;20015;-59
2021/07/21 01:09:11;;;;;;;5.85;3.50;;;;;;;20.27;63.09;99019.72;5110128;28;20032;-59
2021/07/21 01:11:57;;;;;;;5.45;3.65;;;;;;;20.35;63.22;99033.13;5104016;28;20058;-59
2021/07/21 01:14:34;;;;;;;7.38;3.30;;;;;;;20.33;63.63;99021.88;5112902;28;20238;-60
2021/07/21 01:17:04;;;;;;;7.55;3.70;;;;;;;20.38;63.03;99008.41;5102051;28;20059;-60
2021/07/21 01:20:04;;;;;;;7.45;3.60;;;;;;;20.33;62.53;99022.72;5103951;28;20049;-59
2021/07/21 01:22:35;;;;;;;5.22;3.63;;;;;;;20.28;62.04;99024.88;5121400;28;20241;-60
2021/07/21 01:25:23;;;;;;;4.85;3.92;;;;;;;20.15;61.71;98980.22;5121855;28;20051;-60
2021/07/21 01:27:52;;;;;;;6.00;3.67;;;;;;;20.07;61.55;98964.16;5125754;28;20043;-60
2021/07/21 01:30:22;;;;;;;6.65;3.67;;;;;;;20.41;61.06;99016.06;5125585;28;20047;-60
2021/07/21 01:32:53;;;;;;;5.55;3.35;;;;;;;20.14;61.89;98967.19;5116500;28;20051;-60
2021/07/21 01:35:35;;;;;;;6.18;3.60;;;;;;;20.17;61.61;98972.22;5125372;28;20043;-60
2021/07/21 01:38:07;;;;;;;6.07;3.50;;;;;;;20.44;61.84;99019.31;5117420;28;20050;-60
2021/07/21 01:40:43;;;;;;;7.00;4.28;;;;;;;20.18;61.63;98953.69;5114758;28;20055;-60
2021/07/21 01:43:14;;;;;;;8.65;4.28;;;;;;;20.20;61.14;98966.72;5119091;28;20059;-60
2021/07/21 01:45:45;;;;;;;8.50;3.90;;;;;;;20.39;61.51;98987.25;5105527;28;20347;-60
2021/07/21 01:48:11;;;;;;;8.38;4.20;;;;;;;20.45;61.34;98999.97;5121081;28;20386;-60
2021/07/21 01:50:39;;;;;;;8.48;4.53;;;;;;;20.45;61.66;98999.97;5124767;28;20055;-60
2021/07/21 01:53:06;;;;;;;8.45;4.10;;;;;;;20.46;61.95;98999.00;5124940;28;20046;-60
2021/07/21 01:55:32;;;;;;;7.72;4.10;;;;;;;20.53;62.17;98994.13;5106668;28;20064;-59
2021/07/21 01:58:00;;;;;;;7.05;4.13;;;;;;;20.48;62.20;98996.28;5105135;28;20043;-59
2021/07/21 02:00:26;;;;;;;6.00;4.38;;;;;;;20.44;62.21;98995.66;5105213;28;20063;-59
2021/07/21 02:02:56;;;;;;;9.27;3.83;;;;;;;20.37;62.26;98997.06;5117863;28;20031;-58
2021/07/21 02:05:24;;;;;;;6.30;4.07;;;;;;;20.43;62.19;99001.84;5113308;28;20047;-58
2021/07/21 02:07:52;;;;;;;6.18;3.80;;;;;;;20.05;62.48;98945.03;5086951;28;20040;-58
2021/07/21 02:10:25;;;;;;;7.55;4.38;;;;;;;20.18;62.24;98956.31;5105081;28;20040;-58
2021/07/21 02:13:04;;;;;;;6.35;3.78;;;;;;;20.22;62.71;98958.72;5119984;28;20044;-58
2021/07/21 02:15:30;;;;;;;9.35;4.32;;;;;;;20.41;62.51;98995.88;5104806;28;20036;-59
2021/07/21 02:17:57;;;;;;;9.95;4.30;;;;;;;20.49;62.59;99003.19;5104712;28;20048;-58
2021/07/21 02:20:26;;;;;;;9.77;4.88;;;;;;;20.19;62.54;98959.78;5104776;28;20035;-60
2021/07/21 02:22:52;;;;;;;10.52;4.78;;;;;;;20.47;62.55;99007.75;5109963;28;20039;-60
2021/07/21 02:25:22;;;;;;;11.10;4.88;;;;;;;20.42;62.93;99010.72;5104495;28;20067;-60
2021/07/21 02:27:48;;;;;;;8.07;5.10;;;;;;;20.43;62.59;99008.91;5124361;28;20035;-60
2021/07/21 02:30:14;;;;;;;8.77;4.80;;;;;;;20.44;62.62;99011.44;5116681;28;20236;-60
2021/07/21 02:32:45;;;;;;;15.00;4.97;;;;;;;20.11;62.04;98965.59;5109559;28;20036;-59
2021/07/21 02:35:11;;;;;;;13.90;4.97;;;;;;;20.48;62.28;99015.50;5120282;28;20039;-59
2021/07/21 02:37:37;;;;;;;11.32;4.43;;;;;;;20.45;62.20;99017.50;5112271;28;20105;-60
2021/07/21 02:40:05;;;;;;;9.55;4.55;;;;;;;20.41;62.21;99016.06;5110832;28;20359;-58
2021/07/21 02:42:30;;;;;;;5.78;3.85;;;;;;;20.56;61.64;99014.09;5110618;28;20047;-58
2021/07/21 02:44:56;;;;;;;8.48;3.95;;;;;;;20.62;61.06;99026.81;5104444;28;20024;-59
2021/07/21 02:47:23;;;;;;;7.25;3.55;;;;;;;20.65;60.23;99030.06;5113154;28;20011;-59
2021/07/21 02:49:50;;;;;;;8.88;3.42;;;;;;;20.64;59.63;99027.53;5124166;28;20046;-59
2021/07/21 02:52:28;;;;;;;6.55;3.45;;;;;;;20.44;59.11;98979.88;5112306;28;20038;-59
2021/07/21 02:55:11;;;;;;;4.03;3.05;;;;;;;20.79;59.19;99034.34;5104057;28;20075;-58
2021/07/21 02:57:41;;;;;;;7.53;3.45;;;;;;;20.72;59.06;99027.81;5114984;28;20090;-58
2021/07/21 03:00:13;;;;;;;4.85;2.72;;;;;;;20.44;58.46;98990.38;5108772;28;20269;-58
2021/07/21 03:02:41;;;;;;;5.93;3.20;;;;;;;20.81;58.62;99029.78;5108313;28;20055;-57
2021/07/21 03:05:11;;;;;;;3.35;2.97;;;;;;;20.46;58.10;98977.13;5119225;28;20043;-58
2021/07/21 03:07:38;;;;;;;4.07;2.80;;;;;;;20.85;58.20;99036.50;5123491;28;20063;-58
2021/07/21 03:10:11;;;;;;;6.15;2.85;;;;;;;20.83;58.06;99027.03;5123672;28;20047;-58
2021/07/21 03:12:42;;;;;;;6.07;3.00;;;;;;;20.94;57.81;99045.50;5120606;28;20052;-58
2021/07/21 03:15:12;;;;;;;3.00;2.35;;;;;;;20.58;57.48;98983.25;5104086;28;20055;-57
2021/07/21 03:17:39;;;;;;;4.80;2.80;;;;;;;20.87;58.13;99033.75;5103786;28;20336;-58
2021/07/21 03:20:07;;;;;;;6.53;2.85;;;;;;;20.53;57.27;98984.44;5103570;28;20270;-58
2021/07/21 03:22:36;;;;;;;2.85;2.47;;;;;;;20.66;57.16;98994.03;5109653;28;20051;-58
2021/07/21 03:25:06;;;;;;;5.97;2.97;;;;;;;20.44;57.03;98948.28;5117195;28;20039;-59
2021/07/21 03:27:36;;;;;;;4.45;2.95;;;;;;;20.99;57.76;99027.56;5103538;28;20042;-57
2021/07/21 03:30:06;;;;;;;7.53;3.00;;;;;;;21.01;58.52;99038.00;5109607;28;20054;-57
2021/07/21 03:32:32;;;;;;;4.97;2.80;;;;;;;21.05;58.47;99042.06;5122786;28;20348;-57
2021/07/21 03:34:59;;;;;;;5.10;2.78;;;;;;;20.80;57.88;98985.16;5123216;28;20043;-56
2021/07/21 03:37:27;;;;;;;6.95;2.92;;;;;;;20.74;57.71;98998.78;5113635;28;20258;-57
2021/07/21 03:39:56;;;;;;;3.50;2.53;;;;;;;21.04;57.78;99048.28;5103162;28;20265;-58
2021/07/21 03:42:25;;;;;;;3.63;2.45;;;;;;;20.79;57.75;98991.38;5119855;28;20043;-58
2021/07/21 03:44:53;;;;;;;3.40;2.45;;;;;;;21.09;57.94;99040.88;5110269;28;20245;-58
2021/07/21 03:47:20;;;;;;;5.50;2.83;;;;;;;21.16;58.02;99043.88;5107197;28;20035;-58
2021/07/21 03:49:46;;;;;;;6.07;2.80;;;;;;;21.19;57.42;99030.47;5119162;28;20042;-58
2021/07/21 03:52:13;;;;;;;4.47;2.75;;;;;;;21.12;57.97;99038.03;5109579;28;20036;-58
2021/07/21 03:54:40;;;;;;;7.43;2.70;;;;;;;21.20;57.78;99035.63;5112076;28;20062;-57
2021/07/21 03:57:07;;;;;;;12.38;7.20;;;;;;;21.21;57.89;99032.03;5089816;28;20039;-57
2021/07/21 03:59:36;;;;;;;7.30;3.22;;;;;;;21.24;57.21;99032.78;5108546;28;20062;-58
2021/07/21 04:02:02;;;;;;;3.67;2.88;;;;;;;21.27;56.23;99028.09;5111395;28;20035;-59
2021/07/21 04:04:30;;;;;;;4.68;2.63;;;;;;;21.32;56.51;99025.09;5110177;28;20055;-58
2021/07/21 04:06:57;;;;;;;3.70;2.67;;;;;;;21.41;56.11;99032.31;5108968;28;20051;-58
2021/07/21 04:09:25;;;;;;;6.68;3.00;;;;;;;21.46;56.05;99032.81;5109419;28;20035;-58
2021/07/21 04:11:55;;;;;;;4.72;2.42;;;;;;;21.48;56.40;99033.50;5106767;28;20043;-58
2021/07/21 04:14:22;;;;;;;5.95;2.85;;;;;;;21.54;56.11;99030.41;5110998;28;20271;-59
2021/07/21 04:16:50;;;;;;;8.25;2.97;;;;;;;21.26;56.29;98986.06;5109521;28;20054;-59
2021/07/21 04:19:18;;;;;;;4.95;2.78;;;;;;;21.30;56.87;98983.06;5089831;28;20036;-59
2021/07/21 04:21:49;;;;;;;8.48;2.75;;;;;;;21.42;56.89;99006.78;5110875;28;20069;-59
2021/07/21 04:24:17;;;;;;;5.30;2.60;;;;;;;21.62;57.05;99029.84;5109287;28;20054;-59
2021/07/21 04:26:43;;;;;;;6.22;2.70;;;;;;;21.73;56.35;99034.25;5107337;28;20051;-59
2021/07/21 04:29:15;;;;;;;4.10;2.40;;;;;;;21.87;56.20;99036.63;5109771;28;20043;-59
2021/07/21 04:31:42;;;;;;;;;;;;;;;21.86;56.80;99035.00;5103164;28;20044;-62
2021/07/21 04:34:10;;;;;;;3.53;2.40;;;;;;;21.85;57.20;99030.66;5062059;28;20208;-59
2021/07/21 04:36:38;;;;;;;4.80;2.30;;;;;;;21.95;56.83;99038.69;5107754;28;20054;-59
2021/07/21 04:39:06;;;;;;;3.45;2.22;;;;;;;21.90;56.14;99027.66;5109057;28;20048;-59
2021/07/21 04:41:33;;;;;;;4.85;2.50;;;;;;;21.97;56.04;99038.56;5110093;28;20042;-59
2021/07/21 04:44:01;;;;;;;4.13;2.75;;;;;;;21.95;55.73;99024.66;5117942;28;20340;-60
2021/07/21 04:46:27;;;;;;;3.88;2.70;;;;;;;22.06;55.53;99037.81;5122149;28;20264;-59
2021/07/21 04:48:55;;;;;;;3.78;2.28;;;;;;;22.08;55.33;99029.81;5114039;28;20051;-58
2021/07/21 04:51:22;;;;;;;5.57;2.78;;;;;;;22.16;55.18;99036.16;5110434;28;20051;-59
2021/07/21 04:53:54;;;;;;;4.18;2.10;;;;;;;21.95;55.47;98993.88;5107987;28;20078;-57
2021/07/21 04:56:20;;;;;;;5.70;2.58;;;;;;;22.22;56.00;99035.63;5108373;28;20038;-58
2021/07/21 04:58:46;;;;;;;3.55;2.35;;;;;;;22.34;55.56;99043.56;5104029;28;20047;-59
2021/07/21 05:01:16;;;;;;;56.65;7.47;;;;;;;22.41;55.49;99045.56;5116608;28;20050;-59
2021/07/21 05:03:42;;;;;;;30.88;4.75;;;;;;;22.48;55.15;99048.56;5111529;28;20044;-59
2021/07/21 05:06:08;;;;;;;17.55;3.58;;;;;;;22.53;54.52;99051.66;5108583;28;20058;-59
2021/07/21 05:08:34;;;;;;;12.02;3.20;;;;;;;22.60;53.79;99045.88;5110929;28;20039;-59
2021/07/21 05:11:00;;;;;;;7.43;2.25;;;;;;;22.60;53.50;99040.59;5114013;28;20041;-58
2021/07/21 05:13:26;;;;;;;6.45;2.58;;;;;;;22.57;53.64;99053.09;5124510;28;20034;-58
2021/07/21 05:15:51;;;;;;;6.63;2.72;;;;;;;22.61;53.46;99045.75;5105942;28;20024;-58
2021/07/21 05:18:18;;;;;;;6.70;2.60;;;;;;;22.70;53.79;99045.00;5114292;28;20364;-58
2021/07/21 05:20:44;;;;;;;16.45;3.33;;;;;;;22.75;54.74;99042.81;5123587;28;20047;-58
2021/07/21 05:23:10;;;;;;;6.47;2.42;;;;;;;22.75;52.66;99041.97;5118162;28;20047;-58
2021/07/21 05:25:38;;;;;;;4.13;2.35;;;;;;;22.85;53.03;99042.06;5105467;28;20039;-58
2021/07/21 05:28:05;;;;;;;5.15;2.10;;;;;;;22.94;52.46;99041.28;5120493;28;20043;-58
2021/07/21 05:30:31;;;;;;;2.92;2.47;;;;;;;22.87;52.54;99040.13;5115274;28;20083;-58
2021/07/21 05:32:57;;;;;;;10.63;2.95;;;;;;;22.79;52.78;99045.19;5106651;28;20023;-58
2021/07/21 05:35:23;;;;;;;3.50;2.10;;;;;;;22.88;51.44;99045.28;5105623;28;20039;-58
2021/07/21 05:37:49;;;;;;;5.32;2.60;;;;;;;22.95;52.06;99047.41;5118110;28;20035;-59
2021/07/21 05:40:15;;;;;;;5.70;2.60;;;;;;;22.98;51.73;99050.63;5111896;28;20217;-58
2021/07/21 05:42:41;;;;;;;4.10;2.35;;;;;;;23.00;51.45;99047.84;5110325;28;20351;-58
2021/07/21 05:45:07;;;;;;;4.55;2.40;;;;;;;23.04;51.39;99036.91;5111111;28;20012;-60
2021/07/21 05:47:33;;;;;;;6.25;2.63;;;;;;;23.10;50.94;99043.47;5112554;28;20043;-59
2021/07/21 05:49:58;;;;;;;4.00;2.00;;;;;;;23.19;51.60;99047.19;5112936;28;20317;-59
2021/07/21 05:52:24;;;;;;;6.43;2.47;;;;;;;23.20;50.59;99052.34;5113229;28;20019;-59
2021/07/21 05:54:50;;;;;;;2.40;1.90;;;;;;;23.27;51.61;99042.94;5112910;28;20047;-59
2021/07/21 05:57:18;;;;;;;3.53;2.15;;;;;;;23.37;51.01;99044.78;5113939;28;20046;-58
2021/07/21 05:59:43;;;;;;;5.30;2.30;;;;;;;23.42;51.06;99038.13;5114609;28;20046;-58
2021/07/21 06:02:09;;;;;;;3.20;2.13;;;;;;;23.50;51.60;99037.50;5109326;28;20044;-59
2021/07/21 06:04:35;;;;;;;4.00;2.53;;;;;;;23.51;51.79;99036.50;5107797;28;20091;-58
2021/07/21 06:07:03;;;;;;;4.07;2.22;;;;;;;23.52;51.45;99032.06;5118896;28;20028;-59
2021/07/21 06:09:30;;;;;;;4.35;2.65;;;;;;;23.52;50.83;99032.91;5106509;28;20043;-59
2021/07/21 06:11:55;;;;;;;6.45;2.83;;;;;;;23.66;51.07;99036.16;5117052;28;20039;-58
2021/07/21 06:14:21;;;;;;;4.95;2.45;;;;;;;23.53;49.71;99024.00;5109059;28;20022;-58
2021/07/21 06:16:47;;;;;;;7.18;2.40;;;;;;;23.54;49.65;99033.59;5109806;28;20028;-59
2021/07/21 06:19:13;;;;;;;2.75;2.00;;;;;;;23.66;49.83;99022.94;5110091;28;20026;-58
2021/07/21 06:21:39;;;;;;;6.60;2.35;;;;;;;23.70;49.53;99029.63;5112233;28;20048;-59
2021/07/21 06:24:05;;;;;;;3.75;1.92;;;;;;;23.77;48.85;99017.53;5113648;28;20091;-59
2021/07/21 06:26:30;;;;;;;3.17;2.08;;;;;;;23.76;49.47;99021.19;5111069;28;20020;-59
2021/07/21 06:28:56;;;;;;;4.95;2.05;;;;;;;23.88;49.56;99022.75;5112346;28;20020;-58
2021/07/21 06:31:22;;;;;;;4.88;2.15;;;;;;;23.83;48.76;99027.59;5110462;28;20024;-59
2021/07/21 06:33:48;;;;;;;4.20;3.00;;;;;;;23.73;48.65;99016.16;5110961;28;20046;-58
2021/07/21 06:36:14;;;;;;;4.10;2.13;;;;;;;23.76;49.26;99024.66;5112561;28;20016;-58
2021/07/21 06:38:40;;;;;;;4.65;2.28;;;;;;;23.90;48.88;99026.13;5112168;28;20053;-59
2021/07/21 06:41:06;;;;;;;3.42;2.22;;;;;;;23.90;48.98;99018.19;5108605;28;20368;-60
2021/07/21 06:43:32;;;;;;;2.97;1.92;;;;;;;24.03;48.59;99025.88;5115031;28;20054;-61
2021/07/21 06:45:58;;;;;;;4.25;1.70;;;;;;;24.08;47.00;99017.53;5110020;28;20305;-61
2021/07/21 06:48:24;;;;;;;3.90;1.58;;;;;;;24.10;46.76;99011.13;5093728;28;20060;-61
2021/07/21 06:50:50;;;;;;;3.70;1.60;;;;;;;24.27;46.80;99016.72;5109520;28;20027;-61
2021/07/21 06:53:16;;;;;;;2.78;1.67;;;;;;;24.26;47.48;99004.47;5114125;28;20065;-59
2021/07/21 06:55:41;;;;;;;4.03;1.80;;;;;;;24.45;46.97;99007.13;5109332;28;20107;-59
2021/07/21 06:58:08;;;;;;;3.05;1.90;;;;;;;24.37;45.71;99017.59;5111415;28;20019;-59
2021/07/21 07:00:34;;;;;;;3.83;1.70;;;;;;;24.47;45.98;99012.28;5109017;28;20047;-59
2021/07/21 07:03:00;;;;;;;3.88;2.15;;;;;;;24.58;45.81;99012.13;5114241;28;20087;-59
2021/07/21 07:05:26;;;;;;;4.45;2.28;;;;;;;24.63;45.91;99015.25;5110038;28;20020;-60
2021/07/21 07:07:52;;;;;;;4.25;1.90;;;;;;;24.47;45.26;99018.41;5110987;28;20048;-59
2021/07/21 07:10:19;;;;;;;4.50;1.95;;;;;;;24.54;46.19;99013.41;5108458;28;20263;-59
2021/07/21 07:12:47;;;;;;;4.30;2.00;;;;;;;24.31;45.66;98967.81;5111106;28;20249;-59
2021/07/21 07:15:13;;;;;;;7.65;2.00;;;;;;;24.52;45.55;98999.47;5114174;28;20039;-58
2021/07/21 07:17:39;;;;;;;4.22;1.83;;;;;;;24.61;46.13;99003.09;5111205;28;20047;-59
2021/07/21 07:20:07;;;;;;;7.22;2.33;;;;;;;24.22;45.45;98966.84;5114503;28;20325;-58
2021/07/21 07:22:33;;;;;;;2.78;2.03;;;;;;;24.58;46.41;99004.19;5109576;28;20046;-59
2021/07/21 07:25:00;;;;;;;4.22;2.15;;;;;;;24.57;46.72;99010.47;5110849;28;20060;-59
2021/07/21 07:27:30;;;;;;;6.28;2.45;;;;;;;24.65;46.13;99012.44;5119097;28;20455;-59
2021/07/21 07:29:56;;;;;;;3.00;2.28;;;;;;;24.60;45.96;99006.75;5112003;28;20321;-60
2021/07/21 07:32:22;;;;;;;3.95;2.38;;;;;;;24.59;45.96;99007.69;5112917;28;20047;-58
2021/07/21 07:34:48;;;;;;;5.05;2.25;;;;;;;24.50;45.81;99000.56;5111793;28;20103;-58
2021/07/21 07:37:14;;;;;;;6.32;2.20;;;;;;;24.55;46.00;99004.47;5093031;28;20097;-58
2021/07/21 07:39:41;;;;;;;5.70;2.17;;;;;;;24.50;46.08;99004.06;5106388;28;20247;-58
2021/07/21 07:42:07;;;;;;;4.13;2.47;;;;;;;24.32;45.81;99009.22;5108014;28;20036;-58
2021/07/21 07:44:33;;;;;;;5.15;2.72;;;;;;;24.38;46.13;99008.66;5119830;28;20027;-61
2021/07/21 07:46:59;;;;;;;5.22;2.67;;;;;;;24.66;46.19;99000.88;5122935;28;20262;-61
2021/07/21 07:49:25;;;;;;;3.33;2.17;;;;;;;24.67;46.32;99015.81;5105489;28;20052;-61
2021/07/21 07:51:51;;;;;;;6.18;2.30;;;;;;;24.68;44.57;99012.16;5102890;28;20340;-61
2021/07/21 07:54:20;;;;;;;10.77;2.63;;;;;;;24.74;45.61;99011.63;5109194;28;20040;-59
2021/07/21 07:56:47;;;;;;;3.78;2.40;;;;;;;24.88;46.17;99002.38;5102888;28;20042;-60
2021/07/21 07:59:14;;;;;;;5.78;2.40;;;;;;;25.05;45.86;98989.41;5110467;28;20137;-60
2021/07/21 08:01:40;;;;;;;2.92;2.10;;;;;;;25.07;45.35;98988.28;5107402;28;20039;-59
2021/07/21 08:04:06;;;;;;;8.38;2.50;;;;;;;25.12;45.44;99004.56;5115359;28;20055;-59
2021/07/21 08:06:33;;;;;;;3.15;2.17;;;;;;;25.24;45.08;98996.44;5102284;28;20091;-59
2021/07/21 08:08:59;;;;;;;5.60;2.17;;;;;;;25.17;44.14;98982.97;5116807;28;20051;-59
2021/07/21 08:11:25;;;;;;;3.72;2.20;;;;;;;25.36;43.90;99000.63;5122363;28;20039;-59
2021/07/21 08:13:51;;;;;;;5.32;2.35;;;;;;;25.13;43.98;98989.53;5122375;28;20020;-60
2021/07/21 08:16:17;;;;;;;4.65;2.45;;;;;;;25.21;44.10;98989.66;5106190;28;20092;-60
2021/07/21 08:18:43;;;;;;;10.15;2.85;;;;;;;25.30;43.67;98988.75;5106166;28;20079;-61
2021/07/21 08:21:10;;;;;;;4.97;2.15;;;;;;;25.30;44.01;98964.91;5104731;28;20283;-60
2021/07/21 08:23:37;;;;;;;4.53;2.28;;;;;;;25.48;44.32;98998.63;5119605;28;20074;-60
2021/07/21 08:26:03;;;;;;;7.82;2.63;;;;;;;25.55;43.72;98990.94;5102668;28;20333;-61
2021/07/21 08:28:31;;;;;;;6.85;2.55;;;;;;;25.60;43.79;98997.47;5102682;28;20055;-59
2021/07/21 08:30:58;;;;;;;7.40;2.38;;;;;;;25.43;43.04;98995.59;5116129;28;20237;-59
2021/07/21 08:33:24;;;;;;;3.15;2.00;;;;;;;25.49;43.35;98990.53;5121989;28;20058;-61
2021/07/21 08:35:50;;;;;;;2.58;2.03;;;;;;;25.42;42.73;98978.84;5122985;28;20066;-60
2021/07/21 08:38:16;;;;;;;5.43;2.28;;;;;;;25.64;42.73;98990.91;5126695;28;20309;-59
2021/07/21 08:40:48;;;;;;;6.72;2.70;;;;;;;25.42;43.20;98983.31;5106868;28;20332;-59
2021/07/21 08:43:15;;;;;;;2.95;2.30;;;;;;;24.93;43.12;98912.72;5096192;28;20054;-60
2021/07/21 08:45:41;;;;;;;4.78;2.20;;;;;;;25.58;43.09;98978.22;5114935;28;20258;-60
2021/07/21 08:48:08;;;;;;;3.22;2.22;;;;;;;25.57;43.16;98962.44;5106598;28;20044;-59
2021/07/21 08:50:33;;;;;;;3.65;2.45;;;;;;;25.64;42.47;98982.13;5088660;28;20043;-60
2021/07/21 08:53:02;;;;;;;5.28;2.20;;;;;;;25.74;43.21;98982.03;5108788;28;20035;-60
2021/07/21 08:55:29;;;;;;;6.88;2.20;;;;;;;25.61;43.01;98969.97;5109815;28;20070;-58
2021/07/21 08:57:55;;;;;;;7.50;2.40;;;;;;;25.61;43.18;98974.44;5112856;28;20340;-58
2021/07/21 09:00:21;;;;;;;7.38;2.58;;;;;;;25.73;43.37;98973.25;5122804;28;20027;-57
2021/07/21 09:02:47;;;;;;;5.22;2.40;;;;;;;25.78;42.92;98972.81;5117591;28;20048;-58
2021/07/21 09:05:15;;;;;;;5.72;2.35;;;;;;;25.66;42.82;98937.69;5107223;28;20039;-57
2021/07/21 09:07:42;;;;;;;4.88;2.22;;;;;;;25.95;43.17;98980.00;5120911;28;20043;-57
2021/07/21 09:10:11;;;;;;;4.63;2.58;;;;;;;26.11;43.26;98974.03;5117633;28;20054;-58
2021/07/21 09:12:38;;;;;;;4.28;2.10;;;;;;;25.73;42.81;98932.66;5105927;28;20043;-57
2021/07/21 09:15:06;;;;;;;6.72;2.47;;;;;;;25.85;43.42;98947.34;5110314;28;20055;-58
2021/07/21 09:17:32;;;;;;;5.25;2.60;;;;;;;26.15;43.31;98978.06;5124013;28;20039;-58
2021/07/21 09:19:58;;;;;;;8.02;2.38;;;;;;;26.21;43.66;98971.31;5108546;28;20052;-58
2021/07/21 09:22:34;;;;;;;5.80;2.40;;;;;;;26.18;42.41;98953.00;5116714;28;20112;-59
2021/07/21 09:25:13;;;;;;;7.15;2.70;;;;;;;26.25;42.77;98959.41;5125904;28;20046;-58
2021/07/21 09:27:40;;;;;;;7.90;2.67;;;;;;;26.23;42.42;98942.78;5125427;28;20136;-59
2021/07/21 09:30:07;;;;;;;5.22;2.22;;;;;;;26.23;42.68;98916.25;5121058;28;20063;-59
2021/07/21 09:32:55;;;;;;;6.13;2.75;;;;;;;26.43;42.47;98946.13;5121166;28;20055;-58
2021/07/21 09:35:55;;;;;;;5.03;2.72;;;;;;;26.58;42.19;98949.06;5113908;28;20060;-56
2021/07/21 09:38:31;;;;;;;3.58;2.33;;;;;;;26.16;41.66;98910.69;5103179;28;20050;-57
2021/07/21 09:41:04;;;;;;;5.88;2.47;;;;;;;26.62;42.50;98950.44;5119490;28;20050;-56
2021/07/21 09:43:34;;;;;;;9.15;2.65;;;;;;;26.52;42.10;98941.69;5120972;28;20214;-57
2021/07/21 09:46:09;;;;;;;2.80;2.08;;;;;;;26.12;41.27;98900.53;5122882;28;20055;-58
2021/07/21 09:48:37;;;;;;;4.38;2.63;;;;;;;26.40;42.21;98942.94;5106490;28;20043;-59
2021/07/21 09:51:03;;;;;;;5.25;2.28;;;;;;;26.41;42.20;98931.31;5116614;28;20039;-60
2021/07/21 09:53:49;;;;;;;4.88;2.35;;;;;;;26.38;41.30;98923.66;5120730;28;20043;-59
2021/07/21 09:56:27;;;;;;;6.10;2.88;;;;;;;26.22;41.87;98924.34;5118883;28;20051;-58
2021/07/21 09:58:53;;;;;;;5.10;2.70;;;;;;;26.11;42.86;98922.75;5110633;28;20367;-59
2021/07/21 10:01:30;;;;;;;6.50;2.60;;;;;;;26.18;42.26;98924.66;5114037;28;20479;-60
2021/07/21 10:04:05;;;;;;;5.68;2.42;;;;;;;26.30;42.19;98922.59;5115817;28;20044;-58
2021/07/21 10:06:41;;;;;;;3.58;2.35;;;;;;;26.27;43.13;98916.78;5111582;28;20039;-59
2021/07/21 10:09:07;;;;;;;5.30;2.47;;;;;;;26.26;42.74;98912.47;5111742;28;20062;-58
2021/07/21 10:11:39;;;;;;;10.32;2.53;;;;;;;26.41;42.57;98910.94;5111340;28;20046;-57
2021/07/21 10:14:14;;;;;;;8.45;3.00;;;;;;;26.28;41.79;98897.19;5111366;28;20054;-57
2021/07/21 10:16:48;;;;;;;6.53;2.90;;;;;;;26.42;42.62;98911.75;5110031;28;20031;-58
2021/07/21 10:19:25;;;;;;;5.40;2.83;;;;;;;26.11;42.42;98865.22;5108757;28;20051;-58
2021/07/21 10:22:00;;;;;;;4.63;3.05;;;;;;;26.39;41.72;98902.25;5117398;28;20081;-59
2021/07/21 10:24:29;;;;;;;5.65;3.05;;;;;;;26.30;42.07;98905.84;5118382;28;20052;-59
2021/07/21 10:26:56;;;;;;;5.50;2.22;;;;;;;26.42;41.18;98907.25;5113317;28;20059;-58
2021/07/21 10:29:23;;;;;;;4.43;2.33;;;;;;;26.29;41.18;98898.88;5115351;28;20048;-59
2021/07/21 10:31:49;;;;;;;5.57;2.50;;;;;;;26.44;41.63;98907.97;5113664;28;20059;-58
2021/07/21 10:34:16;;;;;;;4.00;2.55;;;;;;;26.50;41.88;98901.19;5123963;28;20066;-59
2021/07/21 10:36:43;;;;;;;5.18;2.50;;;;;;;26.12;40.17;98903.19;5113054;28;20047;-57
2021/07/21 10:39:15;;;;;;;4.65;2.67;;;;;;;26.11;40.17;98905.03;5123980;28;20047;-58
2021/07/21 10:41:42;;;;;;;5.38;2.53;;;;;;;26.08;40.65;98885.91;5113588;28;20046;-58
2021/07/21 10:44:10;;;;;;;5.07;3.10;;;;;;;25.96;41.06;98851.59;5112312;28;20054;-58
2021/07/21 10:46:43;;;;;;;4.28;2.33;;;;;;;26.16;40.00;98891.28;5093927;28;20043;-58
2021/07/21 10:49:34;;;;;;;6.07;3.13;;;;;;;26.26;40.06;98876.09;5107554;28;20043;-58
2021/07/21 11:00:09;;;;;;;4.38;2.38;;;;;;;26.15;39.63;98886.97;5116991;28;20340;-58
2021/07/21 11:02:35;;;;;;;5.85;2.90;;;;;;;26.05;40.46;98870.28;5111725;28;20047;-59
2021/07/21 11:05:02;;;;;;;4.35;2.50;;;;;;;26.10;39.72;98889.25;5111148;28;20052;-57
2021/07/21 11:07:54;;;;;;;2.53;2.33;;;;;;;25.97;38.41;98885.13;5109953;28;20268;-58
2021/07/21 11:10:37;;;;;;;3.47;2.80;;;;;;;25.98;38.75;98880.66;5113156;28;20066;-58
2021/07/21 11:13:06;;;;;;;4.25;2.38;;;;;;;25.95;38.14;98871.19;5113583;28;20042;-59
2021/07/21 11:15:34;;;;;;;6.05;2.63;;;;;;;25.72;38.29;98840.78;5110980;28;20046;-58
2021/07/21 11:18:21;;;;;;;5.80;2.58;;;;;;;25.90;37.04;98884.06;5113003;28;20383;-59
2021/07/21 11:21:10;;;;;;;5.63;2.97;;;;;;;26.08;39.58;98883.25;5108932;28;20047;-59
2021/07/21 11:23:51;;;;;;;5.82;3.17;;;;;;;26.20;38.74;98894.50;5115124;28;20031;-58
2021/07/21 11:26:52;;;;;;;4.97;2.40;;;;;;;26.33;38.30;98890.44;5123567;28;20058;-58
2021/07/21 11:29:24;;;;;;;4.97;2.75;;;;;;;26.03;36.40;98886.38;5061601;28;20048;-57
2021/07/21 11:31:50;;;;;;;;;;;;;;;26.21;37.55;98891.69;5123453;28;20039;-59
2021/07/21 11:34:36;;;;;;;6.03;2.63;;;;;;;26.17;38.91;98869.91;5122654;28;19903;-57
2021/07/21 11:37:03;;;;;;;3.20;2.90;;;;;;;26.27;38.84;98888.41;5116989;28;20336;-58
2021/07/21 11:39:38;;;;;;;7.38;2.75;;;;;;;26.40;39.01;98895.16;5102911;28;20051;-57
2021/07/21 11:42:33;;;;;;;3.13;2.60;;;;;;;26.13;39.14;98849.97;5110902;28;20333;-58
2021/07/21 11:45:05;;;;;;;5.82;3.00;;;;;;;26.38;39.44;98899.75;5110860;28;20045;-56
2021/07/21 11:47:34;;;;;;;9.27;3.25;;;;;;;26.09;39.11;98859.22;5107951;28;20040;-58
2021/07/21 11:50:02;;;;;;;3.38;3.08;;;;;;;26.30;37.89;98889.94;5106166;28;20039;-56
2021/07/21 11:52:28;;;;;;;8.18;2.80;;;;;;;25.95;37.82;98892.41;5103089;28;20059;-56